Time;durP1;ratioP1;P1;durP2;ratioP2;P2;SDS_P1;SDS_P2;PMS_P1;PMS_P2;Temp;Humidity;BMP_temperature;BMP_pressure;BME280_temperature;BME280_humidity;BME280_pressure;Samples;Min_cycle;Max_cycle;Signal;HPM_P1;HPM_P2
2022/04/17 00:01:45;;;;;;;17.37;10.72;;;;;;;22.84;51.30;99781.25;1767894;81;25629;-81
2022/04/17 00:04:14;;;;;;;18.20;10.75;;;;;;;22.84;51.30;99778.45;1783759;80;25480;-80
2022/04/17 00:06:39;;;;;;;17.50;9.63;;;;;;;22.84;51.36;99777.06;1783255;80;25716;-86
2022/04/17 00:09:05;;;;;;;15.78;9.30;;;;;;;22.85;51.36;99777.88;1783958;80;25627;-87
2022/04/17 00:11:34;;;;;;;16.25;9.90;;;;;;;22.86;51.38;99783.09;1783790;80;28167;-89
2022/04/17 00:14:01;;;;;;;18.00;9.33;;;;;;;22.85;51.40;99785.65;1783810;80;25602;-89
2022/04/17 00:16:27;;;;;;;15.95;9.53;;;;;;;22.87;51.40;99787.50;1767935;81;25684;-88
2022/04/17 00:18:53;;;;;;;16.35;10.23;;;;;;;22.87;51.43;99791.69;1783799;80;25661;-86
2022/04/17 00:21:20;;;;;;;15.88;10.00;;;;;;;22.88;51.44;99790.50;1783880;80;25590;-87
2022/04/17 00:23:47;;;;;;;18.52;9.83;;;;;;;22.87;51.46;99788.89;1783624;80;27575;-88
2022/04/17 00:26:13;;;;;;;15.83;9.20;;;;;;;22.87;51.48;99789.47;1783624;80;25408;-90
2022/04/17 00:28:39;;;;;;;16.42;9.63;;;;;;;22.87;51.50;99786.09;1783815;80;25466;-91
2022/04/17 00:31:05;;;;;;;15.03;9.43;;;;;;;22.86;51.52;99783.09;1783804;80;25767;-90
2022/04/17 00:33:31;;;;;;;15.18;9.05;;;;;;;22.88;51.52;99787.70;1767903;81;25669;-90
2022/04/17 00:35:57;;;;;;;16.30;9.40;;;;;;;22.87;51.52;99779.11;1783913;80;27383;-81
2022/04/17 00:38:24;;;;;;;15.28;8.80;;;;;;;22.87;51.56;99783.88;1783634;80;25900;-83
2022/04/17 00:40:50;;;;;;;15.40;9.60;;;;;;;22.87;51.58;99788.89;1767836;81;25613;-81
2022/04/17 00:43:26;;;;;;;17.02;9.73;;;;;;;22.87;51.61;99782.48;1759183;80;25923;-82
2022/04/17 00:45:59;;;;;;;15.15;9.43;;;;;;;22.86;51.63;99774.71;1767969;81;25681;-80
2022/04/17 00:48:25;;;;;;;15.85;9.25;;;;;;;22.86;51.67;99778.08;1783805;80;27376;-81
2022/04/17 00:50:54;;;;;;;16.07;8.95;;;;;;;22.85;51.69;99767.48;1783651;80;25260;-81
2022/04/17 00:53:24;;;;;;;15.98;9.13;;;;;;;22.87;51.67;99768.52;1783807;80;25709;-81
2022/04/17 00:55:51;;;;;;;16.33;9.73;;;;;;;22.88;51.63;99772.94;1783806;80;25694;-87
2022/04/17 00:58:18;;;;;;;15.98;9.00;;;;;;;22.87;51.62;99767.94;1783880;80;25450;-85
2022/04/17 01:00:45;;;;;;;13.90;8.83;;;;;;;22.90;51.59;99771.96;1783423;80;26934;-84
2022/04/17 01:03:12;;;;;;;14.30;8.93;;;;;;;22.88;51.57;99764.56;1783412;80;25404;-82
2022/04/17 01:05:42;;;;;;;13.88;8.95;;;;;;;22.88;51.55;99767.36;1783842;80;25697;-81
2022/04/17 01:08:11;;;;;;;16.17;9.00;;;;;;;22.89;51.55;99771.75;1770518;81;26445;-82
2022/04/17 01:10:39;;;;;;;14.75;8.90;;;;;;;22.89;51.53;99763.38;1767552;80;25626;-82
2022/04/17 01:13:09;;;;;;;16.10;8.80;;;;;;;22.88;51.51;99766.75;1783746;80;27600;-83
2022/04/17 01:15:37;;;;;;;12.45;8.48;;;;;;;22.86;51.52;99759.34;1783540;80;34555;-81
2022/04/17 01:18:05;;;;;;;14.18;9.18;;;;;;;22.88;51.48;99758.97;1782608;80;25581;-82
2022/04/17 01:20:31;;;;;;;13.22;8.58;;;;;;;22.87;51.49;99749.77;1767754;81;26748;-82
2022/04/17 01:28:28;;;;;;;14.98;8.50;;;;;;;22.87;51.46;99751.16;1783399;80;25844;-81
2022/04/17 01:30:55;;;;;;;12.28;8.20;;;;;;;22.86;51.45;99746.77;1783678;80;25617;-81
2022/04/17 01:33:23;;;;;;;14.38;8.63;;;;;;;22.86;51.43;99738.96;1767867;81;25695;-81
2022/04/17 01:35:49;;;;;;;14.03;8.33;;;;;;;22.85;51.41;99735.34;1783388;80;25723;-87
2022/04/17 01:38:16;;;;;;;14.40;8.48;;;;;;;22.85;51.42;99740.94;1783733;80;28218;-84
2022/04/17 01:40:42;;;;;;;14.23;8.50;;;;;;;22.86;51.39;99740.36;1783548;80;25690;-88
2022/04/17 01:43:11;;;;;;;13.72;8.23;;;;;;;22.85;51.37;99736.75;1784028;80;25647;-89
2022/04/17 01:45:37;;;;;;;13.48;8.80;;;;;;;22.85;51.36;99739.54;1783324;80;26627;-84
2022/04/17 01:48:05;;;;;;;12.73;8.48;;;;;;;22.85;51.35;99739.54;1783912;80;25633;-81
2022/04/17 01:50:32;;;;;;;13.35;8.65;;;;;;;22.84;51.35;99743.52;1783899;80;28009;-81
2022/04/17 01:52:59;;;;;;;15.65;8.65;;;;;;;22.83;51.35;99747.51;1783477;80;25648;-81
2022/04/17 01:55:29;;;;;;;14.33;8.65;;;;;;;22.83;51.35;99746.69;1767813;81;25665;-83
2022/04/17 01:57:57;;;;;;;12.37;7.95;;;;;;;22.83;51.36;99753.09;1784169;80;25680;-81
2022/04/17 02:00:24;;;;;;;11.68;8.03;;;;;;;22.82;51.32;99745.88;1767941;81;25655;-81
2022/04/17 02:02:50;;;;;;;13.72;8.15;;;;;;;22.81;51.30;99744.27;1783603;80;27469;-82
2022/04/17 02:05:16;;;;;;;14.25;8.00;;;;;;;22.80;51.35;99736.46;1783877;80;25642;-83
2022/04/17 02:07:42;;;;;;;13.20;8.35;;;;;;;22.79;51.33;99740.45;1783847;80;25704;-80
2022/04/17 02:10:08;;;;;;;14.03;8.03;;;;;;;22.78;51.34;99734.64;1768042;81;25770;-82
2022/04/17 02:12:34;;;;;;;14.30;8.85;;;;;;;22.78;51.34;99740.81;1783906;80;25566;-80
2022/04/17 02:15:00;;;;;;;12.75;8.40;;;;;;;22.78;51.32;99737.44;1783975;80;27308;-80
2022/04/17 02:17:26;;;;;;;13.03;8.38;;;;;;;22.76;51.32;99736.99;1783697;80;25620;-80
2022/04/17 02:19:52;;;;;;;12.43;8.08;;;;;;;22.77;51.32;99734.41;1783967;80;25442;-81
2022/04/17 02:22:18;;;;;;;11.95;7.83;;;;;;;22.76;51.31;99731.41;1784037;80;26351;-82
2022/04/17 02:24:44;;;;;;;14.40;8.48;;;;;;;22.74;51.33;99735.14;1783915;80;25633;-83
2022/04/17 02:27:10;;;;;;;13.58;8.05;;;;;;;22.75;51.33;99727.58;1768136;81;27382;-84
2022/04/17 02:29:36;;;;;;;13.15;8.28;;;;;;;22.74;51.33;99731.56;1783774;80;25597;-87
2022/04/17 02:32:03;;;;;;;13.32;8.03;;;;;;;22.73;51.31;99728.53;1783943;80;25632;-83
2022/04/17 02:34:29;;;;;;;13.35;8.55;;;;;;;22.72;51.34;99724.13;1784012;80;25774;-83
2022/04/17 02:36:54;;;;;;;13.55;8.25;;;;;;;22.71;51.33;99722.53;1784093;80;25384;-83
2022/04/17 02:39:20;;;;;;;13.30;7.95;;;;;;;22.69;51.33;99720.89;1783978;80;27370;-84
2022/04/17 02:41:46;;;;;;;12.25;7.58;;;;;;;22.67;51.37;99719.08;1784022;80;25646;-83
2022/04/17 02:44:12;;;;;;;13.03;7.75;;;;;;;22.66;51.38;99717.47;1784118;80;25488;-82
2022/04/17 02:49:22;;;;;;;13.83;8.10;;;;;;;22.64;51.38;99715.62;1783706;80;25428;-82
2022/04/17 02:51:48;;;;;;;12.45;7.72;;;;;;;22.61;51.41;99714.97;1784265;80;27387;-81
2022/04/17 02:54:14;;;;;;;11.28;7.60;;;;;;;22.61;51.43;99714.97;1758126;81;25474;-81
2022/04/17 02:56:40;;;;;;;12.90;8.05;;;;;;;22.57;51.45;99711.28;1785687;80;25665;-82
2022/04/17 02:59:06;;;;;;;13.38;7.53;;;;;;;22.58;51.45;99719.90;1757590;81;25812;-89
2022/04/17 03:07:01;;;;;;;12.20;7.62;;;;;;;22.55;51.49;99716.41;1785131;80;25637;-90
2022/04/17 03:09:27;;;;;;;13.98;7.92;;;;;;;22.54;51.49;99723.19;1785610;80;25569;-90
2022/04/17 03:11:54;;;;;;;13.30;8.53;;;;;;;22.53;51.48;99723.77;1785525;80;26563;-91
2022/04/17 03:14:20;;;;;;;12.60;7.50;;;;;;;22.53;51.50;99724.34;1757875;81;25611;-90
2022/04/17 03:16:46;;;;;;;11.80;7.85;;;;;;;22.52;51.51;99731.12;1785516;80;28425;-91
2022/04/17 03:19:12;;;;;;;12.35;7.37;;;;;;;22.49;51.54;99727.09;1785350;80;25866;-91
2022/04/17 03:21:38;;;;;;;11.97;7.58;;;;;;;22.49;51.52;99729.88;1757956;81;25609;-82
2022/04/17 03:24:04;;;;;;;12.37;7.50;;;;;;;22.48;51.55;99729.64;1785611;80;25636;-80
2022/04/17 03:26:30;;;;;;;11.83;7.78;;;;;;;22.48;51.54;99734.44;1785496;80;25655;-81
2022/04/17 03:28:56;;;;;;;14.40;9.00;;;;;;;22.46;51.56;99735.38;1785501;80;27414;-81
2022/04/17 03:31:22;;;;;;;13.40;7.92;;;;;;;22.45;51.57;99735.96;1785617;80;25702;-81
2022/04/17 03:33:48;;;;;;;13.50;7.95;;;;;;;22.44;51.57;99735.17;1785320;80;25565;-81
2022/04/17 03:36:13;;;;;;;12.45;8.00;;;;;;;22.44;51.57;99728.77;1785462;80;25766;-88
2022/04/17 03:38:39;;;;;;;12.15;7.65;;;;;;;22.40;51.63;99730.08;1785493;80;25407;-81
2022/04/17 03:41:05;;;;;;;12.03;7.58;;;;;;;22.41;51.65;99735.09;1785620;80;27280;-89
2022/04/17 03:43:31;;;;;;;12.75;7.87;;;;;;;22.39;51.63;99731.27;1785430;80;25691;-89
2022/04/17 03:45:58;;;;;;;12.58;7.70;;;;;;;22.37;51.64;99732.25;1757989;81;25428;-83
2022/04/17 03:48:25;;;;;;;13.35;8.03;;;;;;;22.36;51.68;99737.59;1785154;80;25923;-84
2022/04/17 03:50:51;;;;;;;11.78;7.70;;;;;;;22.34;51.68;99734.37;1757616;81;25642;-85
2022/04/17 03:53:17;;;;;;;12.53;7.75;;;;;;;22.33;51.70;99731.34;1785339;80;27449;-85
2022/04/17 03:55:43;;;;;;;12.23;8.00;;;;;;;22.33;51.70;99733.34;1785322;80;25847;-90
2022/04/17 03:58:09;;;;;;;12.75;7.85;;;;;;;22.33;51.70;99734.74;1785477;80;25695;-90
2022/04/17 04:00:35;;;;;;;13.05;7.80;;;;;;;22.31;51.73;99737.30;1785415;80;25767;-87
2022/04/17 04:03:01;;;;;;;12.13;7.83;;;;;;;22.30;51.75;99738.48;1785680;80;25582;-81
2022/04/17 04:05:27;;;;;;;12.75;7.70;;;;;;;22.29;51.75;99733.27;1757893;81;28254;-81
2022/04/17 04:07:53;;;;;;;12.05;7.30;;;;;;;22.28;51.77;99733.84;1785379;80;25664;-81
2022/04/17 04:10:19;;;;;;;11.97;7.00;;;;;;;22.26;51.78;99734.81;1785505;80;25401;-81
2022/04/17 04:12:45;;;;;;;13.03;7.75;;;;;;;22.27;51.78;99735.61;1757959;81;25762;-82
2022/04/17 04:15:11;;;;;;;12.45;7.65;;;;;;;22.26;51.78;99734.81;1785583;80;25658;-83
2022/04/17 04:17:38;;;;;;;12.10;7.78;;;;;;;22.25;51.79;99735.97;1785560;80;27583;-84
2022/04/17 04:20:06;;;;;;;11.85;7.50;;;;;;;22.24;51.79;99736.34;1757836;81;25693;-81
2022/04/17 04:22:32;;;;;;;11.60;7.80;;;;;;;22.24;51.79;99737.16;1785458;80;25624;-81
2022/04/17 04:24:58;;;;;;;12.20;7.50;;;;;;;22.24;51.79;99733.55;1785532;80;25816;-88
2022/04/17 04:30:10;;;;;;;11.50;7.70;;;;;;;22.22;51.80;99733.91;1785153;80;27353;-91
2022/04/17 04:32:35;;;;;;;12.73;7.65;;;;;;;22.22;51.80;99737.31;1785300;80;26043;-89
2022/04/17 04:35:02;;;;;;;11.65;7.50;;;;;;;22.20;51.82;99740.47;1785461;80;25716;-88
2022/04/17 04:37:28;;;;;;;11.20;7.55;;;;;;;22.20;51.82;99744.66;1785441;80;25882;-91
2022/04/17 04:39:54;;;;;;;11.73;7.40;;;;;;;22.19;51.83;99743.84;1785388;80;25395;-90
2022/04/17 04:42:21;;;;;;;11.97;7.37;;;;;;;22.16;51.87;99756.31;1757952;81;28235;-88
2022/04/17 04:44:47;;;;;;;10.98;7.25;;;;;;;22.15;51.90;99752.73;1785456;80;25587;-83
2022/04/17 04:47:14;;;;;;;11.38;7.25;;;;;;;22.15;51.90;99763.08;1756500;80;25652;-83
2022/04/17 04:49:40;;;;;;;11.18;7.12;;;;;;;22.13;51.91;99752.28;1785509;80;26553;-82
2022/04/17 04:52:07;;;;;;;12.18;7.50;;;;;;;22.14;51.93;99760.86;1785320;80;25642;-82
2022/04/17 04:54:34;;;;;;;11.48;7.33;;;;;;;22.14;51.92;99760.08;1757553;81;27514;-82
2022/04/17 04:57:00;;;;;;;11.65;7.47;;;;;;;22.13;51.94;99756.47;1785041;80;25422;-83
2022/04/17 04:59:27;;;;;;;11.90;7.58;;;;;;;22.14;51.93;99754.49;1785647;80;25636;-83
2022/04/17 05:01:53;;;;;;;11.70;7.55;;;;;;;22.10;51.94;99754.41;1757872;81;25714;-83
2022/04/17 05:04:22;;;;;;;12.03;7.35;;;;;;;22.11;51.96;99758.84;1785499;80;25655;-83
2022/04/17 05:06:48;;;;;;;12.05;7.03;;;;;;;22.12;51.94;99757.65;1757688;81;27487;-82
2022/04/17 05:09:15;;;;;;;11.33;7.37;;;;;;;22.12;51.92;99760.44;1785003;80;25467;-85
2022/04/17 05:11:41;;;;;;;11.35;7.30;;;;;;;22.11;51.95;99758.02;1785535;80;25644;-83
2022/04/17 05:14:11;;;;;;;11.93;7.60;;;;;;;22.09;51.96;99755.59;1757797;81;25746;-82
2022/04/17 05:16:38;;;;;;;12.05;7.50;;;;;;;22.08;52.03;99758.75;1785399;80;25612;-83
2022/04/17 05:21:51;;;;;;;11.50;7.08;;;;;;;22.06;52.05;99764.69;1785030;80;25479;-83
2022/04/17 05:24:16;;;;;;;10.95;7.40;;;;;;;22.02;52.09;99754.05;1757429;81;25491;-84
2022/04/17 05:26:43;;;;;;;10.45;7.53;;;;;;;22.00;52.15;99760.57;1785491;80;25693;-84
2022/04/17 05:29:10;;;;;;;11.35;7.12;;;;;;;21.98;52.18;99765.12;1785563;80;25431;-81
2022/04/17 05:31:36;;;;;;;11.20;7.20;;;;;;;21.99;52.18;99763.94;1757962;81;27449;-84
2022/04/17 05:34:02;;;;;;;11.57;7.22;;;;;;;21.98;52.20;99769.30;1785272;80;25743;-83
2022/04/17 05:36:28;;;;;;;10.78;7.08;;;;;;;21.96;52.25;99764.66;1785538;80;25580;-86
2022/04/17 05:38:55;;;;;;;11.20;6.92;;;;;;;21.97;52.28;99764.91;1782164;80;25871;-82
2022/04/17 05:41:29;;;;;;;10.00;6.80;;;;;;;21.96;52.28;99768.06;1785040;80;25713;-82
2022/04/17 05:43:58;;;;;;;9.95;7.08;;;;;;;21.96;52.34;99766.66;1756728;81;28274;-82
2022/04/17 05:46:25;;;;;;;10.75;7.40;;;;;;;21.94;52.36;99767.81;1784867;80;25681;-82
2022/04/17 05:48:51;;;;;;;12.28;7.65;;;;;;;21.96;52.34;99767.45;1756452;80;25704;-91
2022/04/17 05:51:17;;;;;;;11.33;6.95;;;;;;;21.97;52.37;99770.48;1785455;80;25646;-87
2022/04/17 05:53:43;;;;;;;10.25;7.10;;;;;;;21.96;52.36;99768.06;1783997;80;25654;-89
2022/04/17 05:56:10;;;;;;;10.90;7.12;;;;;;;21.98;52.34;99764.30;1767907;81;27602;-85
2022/04/17 05:58:36;;;;;;;11.35;7.15;;;;;;;21.98;52.28;99763.72;1783731;80;25674;-87
2022/04/17 06:01:02;;;;;;;10.63;7.28;;;;;;;22.00;52.26;99769.76;1783587;80;25577;-88
2022/04/17 06:03:29;;;;;;;11.55;7.50;;;;;;;22.01;52.26;99774.16;1767533;81;25786;-91
2022/04/17 06:05:55;;;;;;;11.73;7.53;;;;;;;22.06;52.23;99771.67;1783795;80;25466;-81
2022/04/17 06:08:22;;;;;;;11.90;7.33;;;;;;;22.08;52.20;99772.70;1783840;80;26910;-80
2022/04/17 06:10:48;;;;;;;12.15;7.87;;;;;;;22.08;52.19;99772.13;1783629;80;25589;-81
2022/04/17 06:13:14;;;;;;;11.18;7.12;;;;;;;22.09;52.19;99776.52;1767943;81;25438;-81
2022/04/17 06:15:40;;;;;;;12.13;8.10;;;;;;;22.10;52.21;99777.34;1783759;80;25895;-83
2022/04/17 06:18:07;;;;;;;12.73;8.18;;;;;;;22.13;52.19;99772.42;1767717;81;25447;-83
2022/04/17 06:20:33;;;;;;;10.35;7.03;;;;;;;22.14;52.19;99772.03;1783662;80;27271;-81
2022/04/17 06:22:59;;;;;;;10.95;7.40;;;;;;;22.13;52.19;99776.00;1783735;80;25586;-82
2022/04/17 06:25:25;;;;;;;10.70;7.00;;;;;;;22.13;52.23;99777.41;1767878;81;25842;-81
2022/04/17 06:27:51;;;;;;;12.73;7.53;;;;;;;22.13;52.24;99782.20;1783702;80;25749;-84
2022/04/17 06:30:21;;;;;;;12.30;7.12;;;;;;;22.11;52.25;99779.77;1783957;80;25453;-81
2022/04/17 06:32:48;;;;;;;15.38;11.03;;;;;;;22.11;52.29;99775.58;1784116;80;27530;-82
2022/04/17 06:35:17;;;;;;;18.50;13.13;;;;;;;22.09;52.28;99777.92;1783863;80;25826;-82
2022/04/17 06:37:50;;;;;;;33.65;22.65;;;;;;;22.11;52.41;99774.77;1783945;80;25384;-82
2022/04/17 06:40:20;;;;;;;39.78;26.93;;;;;;;22.12;52.48;99771.61;1783596;80;25729;-82
2022/04/17 06:42:50;;;;;;;47.62;30.97;;;;;;;22.14;52.39;99772.03;1783189;79;25472;-84
2022/04/17 06:45:18;;;;;;;53.13;35.90;;;;;;;22.15;52.44;99769.48;1760333;80;27307;-84
2022/04/17 06:47:45;;;;;;;56.35;37.73;;;;;;;22.17;52.34;99769.12;1783673;80;25725;-85
2022/04/17 06:50:12;;;;;;;56.25;40.43;;;;;;;22.21;52.39;99767.20;1783883;80;25458;-82
2022/04/17 06:52:39;;;;;;;65.60;44.03;;;;;;;22.23;52.30;99771.84;1783736;80;25690;-82
2022/04/17 06:55:12;;;;;;;66.70;46.10;;;;;;;22.25;52.19;99769.47;1784007;80;25434;-85
2022/04/17 06:57:36;;;;;;;66.85;45.98;;;;;;;22.27;52.08;99764.34;1782178;80;25987;-83
2022/04/17 07:00:09;;;;;;;68.67;48.05;;;;;;;22.29;52.03;99767.59;1783404;80;26008;-84
2022/04/17 07:02:37;;;;;;;70.28;50.30;;;;;;;22.33;51.93;99764.06;1767595;81;25586;-82
2022/04/17 07:05:04;;;;;;;72.00;49.23;;;;;;;22.35;51.83;99771.47;1783797;80;25720;-82
2022/04/17 07:07:30;;;;;;;72.08;50.30;;;;;;;22.39;51.87;99763.99;1768033;81;25577;-82
2022/04/17 07:09:56;;;;;;;72.35;53.95;;;;;;;22.44;51.94;99764.50;1783786;80;27563;-82
2022/04/17 07:12:22;;;;;;;76.33;52.83;;;;;;;22.49;51.94;99770.95;1783829;80;25784;-86
2022/04/17 07:14:50;;;;;;;74.77;53.02;;;;;;;22.53;51.92;99764.27;1783782;80;25655;-87
2022/04/17 07:17:20;;;;;;;74.90;52.05;;;;;;;22.56;51.93;99767.72;1767930;81;25721;-82
2022/04/17 07:19:44;;;;;;;75.28;52.45;;;;;;;22.59;51.85;99773.18;1782370;80;25418;-82
2022/04/17 07:22:13;;;;;;;68.60;48.92;;;;;;;22.61;51.66;99770.02;1767909;81;27383;-88
2022/04/17 07:24:39;;;;;;;70.15;50.43;;;;;;;22.63;51.46;99766.28;1783058;80;25775;-86
2022/04/17 07:27:05;;;;;;;70.05;47.65;;;;;;;22.64;51.29;99763.12;1783556;80;25391;-81
2022/04/17 07:29:32;;;;;;;63.10;45.58;;;;;;;22.67;51.17;99760.98;1738306;82;25682;-83
2022/04/17 07:31:58;;;;;;;62.50;43.73;;;;;;;22.72;51.05;99762.67;1764900;81;25879;-82
2022/04/17 07:34:24;;;;;;;60.00;43.95;;;;;;;22.76;50.91;99757.95;1783907;80;28221;-82
2022/04/17 07:36:55;;;;;;;57.67;41.45;;;;;;;22.78;50.65;99754.78;1783712;80;25668;-83
2022/04/17 07:39:22;;;;;;;56.88;41.08;;;;;;;22.81;50.40;99754.05;1783222;80;25683;-82
2022/04/17 07:41:49;;;;;;;58.90;40.30;;;;;;;22.82;49.96;99761.23;1737843;82;25730;-82
2022/04/17 07:44:15;;;;;;;52.05;37.38;;;;;;;22.84;49.81;99761.69;1784093;80;25707;-82
2022/04/17 07:46:42;;;;;;;50.50;36.33;;;;;;;22.86;49.50;99758.52;1783843;80;27421;-84
2022/04/17 07:49:09;;;;;;;40.30;29.75;;;;;;;22.86;49.23;99750.14;1783588;80;25747;-85
2022/04/17 07:51:36;;;;;;;40.55;29.40;;;;;;;22.85;48.04;99752.11;1783884;80;25391;-85
2022/04/17 07:54:03;;;;;;;39.88;29.20;;;;;;;22.83;47.60;99750.30;1783541;80;25743;-83
2022/04/17 07:56:30;;;;;;;38.65;27.80;;;;;;;22.84;47.46;99746.90;1783897;80;25440;-88
2022/04/17 07:58:57;;;;;;;38.10;26.97;;;;;;;22.83;47.09;99746.11;1783760;80;26864;-87
2022/04/17 08:01:23;;;;;;;38.17;26.77;;;;;;;22.83;46.54;99742.50;1767846;81;25891;-87
2022/04/17 08:03:49;;;;;;;37.23;25.97;;;;;;;22.80;46.40;99750.43;1783862;80;25601;-83
2022/04/17 08:06:20;;;;;;;35.30;24.37;;;;;;;22.79;46.24;99739.05;1783840;80;25704;-88
2022/04/17 08:08:47;;;;;;;36.28;25.35;;;;;;;22.77;45.98;99740.00;1767562;81;25729;-82
2022/04/17 08:11:13;;;;;;;35.98;24.65;;;;;;;22.77;45.94;99737.81;1783700;80;28218;-81
2022/04/17 08:13:40;;;;;;;34.40;24.57;;;;;;;22.77;45.89;99730.22;1783710;80;25664;-84
2022/04/17 08:16:08;;;;;;;36.38;24.57;;;;;;;22.76;45.92;99731.41;1814642;78;25636;-85
2022/04/17 08:18:35;;;;;;;35.05;24.67;;;;;;;22.75;45.98;99728.41;1793863;79;25742;-82
2022/04/17 08:21:01;;;;;;;38.40;25.62;;;;;;;22.76;46.00;99732.80;1781108;79;25667;-82
2022/04/17 08:23:28;;;;;;;41.42;25.85;;;;;;;22.78;46.18;99731.03;1797729;79;28260;-82
2022/04/17 08:25:55;;;;;;;36.17;24.57;;;;;;;22.79;46.47;99725.66;1796601;79;25599;-81
2022/04/17 08:28:21;;;;;;;35.73;24.98;;;;;;;22.80;46.59;99717.51;1795826;79;25586;-81
2022/04/17 08:30:49;;;;;;;33.78;24.77;;;;;;;22.80;46.67;99726.68;1797773;79;26582;-84
2022/04/17 08:33:16;;;;;;;34.60;24.47;;;;;;;22.79;46.75;99722.86;1797675;79;25636;-83
2022/04/17 08:35:43;;;;;;;34.05;24.37;;;;;;;22.79;46.91;99717.27;1798219;79;27413;-82
2022/04/17 08:38:09;;;;;;;34.27;24.12;;;;;;;22.81;46.98;99714.92;1798289;79;25726;-85
2022/04/17 08:40:39;;;;;;;34.38;23.92;;;;;;;22.80;47.17;99713.32;1797467;79;25635;-83
2022/04/17 08:43:08;;;;;;;31.50;23.05;;;;;;;22.80;47.31;99713.32;1797454;79;25749;-81
2022/04/17 08:45:35;;;;;;;33.90;22.93;;;;;;;22.81;47.52;99706.55;1797482;79;25585;-81
2022/04/17 08:48:04;;;;;;;37.73;23.55;;;;;;;22.78;47.79;99702.52;1797757;79;28384;-81
2022/04/17 08:50:32;;;;;;;38.17;22.45;;;;;;;22.80;47.97;99709.91;1797669;79;25676;-81
2022/04/17 08:53:00;;;;;;;33.88;22.50;;;;;;;22.82;48.13;99706.75;1797237;79;25588;-82
2022/04/17 08:55:26;;;;;;;33.20;21.48;;;;;;;22.83;48.39;99701.98;1791532;80;25968;-82
2022/04/17 08:57:53;;;;;;;32.73;22.00;;;;;;;22.84;48.59;99706.38;1792043;80;25386;-82
2022/04/17 09:00:20;;;;;;;33.48;22.67;;;;;;;22.84;48.77;99700.20;1791737;80;27356;-82
2022/04/17 09:02:48;;;;;;;39.40;21.27;;;;;;;22.86;49.03;99699.26;1791913;80;25266;-81
2022/04/17 09:05:18;;;;;;;31.05;20.85;;;;;;;22.87;49.14;99700.05;1791538;80;25672;-83
2022/04/17 09:07:50;;;;;;;33.57;21.60;;;;;;;22.88;49.25;99699.67;1792095;80;25765;-84
2022/04/17 09:10:33;;;;;;;31.40;21.20;;;;;;;22.90;49.44;99695.92;1770982;81;25735;-83
2022/04/17 09:13:02;;;;;;;30.75;19.42;;;;;;;22.91;49.57;99691.95;1791818;80;27308;-82
2022/04/17 09:15:34;;;;;;;28.75;19.92;;;;;;;22.92;49.72;99695.55;1791684;80;25427;-84
2022/04/17 09:18:02;;;;;;;28.40;19.50;;;;;;;22.93;49.85;99688.77;1791795;80;25596;-81
2022/04/17 09:20:29;;;;;;;28.38;18.85;;;;;;;22.93;50.00;99678.41;1791682;80;25732;-81
2022/04/17 09:22:58;;;;;;;28.32;19.65;;;;;;;22.96;50.15;99669.86;1791871;80;25747;-82
2022/04/17 09:25:26;;;;;;;25.30;17.75;;;;;;;22.98;50.27;99670.89;1792074;80;27430;-84
2022/04/17 09:28:08;;;;;;;26.48;18.15;;;;;;;23.00;50.37;99663.73;1789157;80;26200;-81
2022/04/17 09:30:42;;;;;;;25.32;17.73;;;;;;;23.01;50.42;99659.78;1791078;80;25609;-81
2022/04/17 09:33:14;;;;;;;26.30;17.87;;;;;;;23.05;50.47;99659.81;1791520;80;25729;-81
2022/04/17 09:35:55;;;;;;;23.02;17.55;;;;;;;23.05;50.54;99657.84;1791334;80;25656;-81
2022/04/17 09:38:28;;;;;;;24.87;17.75;;;;;;;23.06;50.61;99660.05;1791942;80;27407;-81
2022/04/17 09:41:13;;;;;;;23.50;16.87;;;;;;;23.06;50.62;99648.27;1791332;80;25636;-81
2022/04/17 09:43:39;;;;;;;23.02;15.83;;;;;;;23.07;50.62;99647.68;1791533;80;25645;-81
2022/04/17 09:46:08;;;;;;;23.50;16.97;;;;;;;23.08;50.63;99646.48;1791793;80;25702;-83
2022/04/17 09:48:40;;;;;;;22.22;16.15;;;;;;;23.09;50.62;99641.72;1791800;80;25860;-83
2022/04/17 09:51:27;;;;;;;23.80;15.90;;;;;;;23.09;50.63;99641.72;1791759;80;27435;-81
2022/04/17 09:54:03;;;;;;;22.22;15.38;;;;;;;23.10;50.64;99639.12;1772745;80;25991;-81
2022/04/17 09:56:40;;;;;;;21.42;14.87;;;;;;;23.10;50.66;99635.75;1772744;80;25451;-81
2022/04/17 09:59:25;;;;;;;20.72;14.50;;;;;;;23.11;50.65;99630.97;1772939;80;25937;-81
2022/04/17 10:01:57;;;;;;;22.27;14.13;;;;;;;23.11;50.65;99629.58;1771224;80;25681;-81
2022/04/17 10:04:27;;;;;;;19.23;13.53;;;;;;;23.11;50.66;99630.37;1773309;80;27360;-81
2022/04/17 10:06:57;;;;;;;20.57;13.80;;;;;;;23.11;50.63;99628.97;1773282;80;25803;-81
2022/04/17 10:09:24;;;;;;;20.30;13.90;;;;;;;23.11;50.49;99630.37;1772803;80;25726;-81
2022/04/17 10:11:52;;;;;;;19.80;12.95;;;;;;;23.11;50.23;99626.78;1773137;80;25760;-81
2022/04/17 10:14:19;;;;;;;20.80;14.00;;;;;;;23.12;50.09;99621.39;1773458;80;25510;-82
2022/04/17 10:16:48;;;;;;;20.70;13.43;;;;;;;23.12;50.04;99621.39;1773034;80;28080;-84
2022/04/17 10:19:19;;;;;;;17.65;12.23;;;;;;;23.12;49.99;99618.02;1772803;80;25696;-82
2022/04/17 10:21:50;;;;;;;20.35;12.98;;;;;;;23.13;49.91;99618.23;1772861;80;25906;-85
2022/04/17 10:24:21;;;;;;;17.27;12.70;;;;;;;23.12;49.81;99618.60;1773049;80;25682;-84
2022/04/17 10:26:51;;;;;;;;;;;;;;;23.10;49.73;99614.78;1772758;80;25813;-82
2022/04/17 10:29:27;;;;;;;;;;;;;;;23.07;49.65;99608.55;1781892;80;27871;-82
2022/04/17 10:32:35;;;;;;;20.02;11.03;;;;;;;23.06;49.44;99607.73;1791684;80;25203;-83
2022/04/17 10:35:34;;;;;;;15.85;11.40;;;;;;;23.06;49.53;99604.15;1791546;80;25640;-82
2022/04/17 10:38:44;;;;;;;17.40;11.38;;;;;;;23.06;49.56;99610.53;1791665;80;26376;-84
2022/04/17 10:41:14;;;;;;;;;;;;;;;23.09;49.51;99603.39;1794166;80;25478;-83
2022/04/17 10:43:50;;;;;;;13.75;10.20;;;;;;;23.11;49.48;99601.62;1791699;80;27493;-82
2022/04/17 10:46:21;;;;;;;20.95;11.05;;;;;;;23.09;49.52;99606.77;1791351;80;25736;-82
2022/04/17 10:49:01;;;;;;;16.07;10.35;;;;;;;23.04;49.40;99591.95;1791631;80;25128;-83
2022/04/17 10:51:34;;;;;;;16.27;10.50;;;;;;;23.01;49.47;99584.31;1791399;80;25785;-82
2022/04/17 10:54:10;;;;;;;16.07;10.90;;;;;;;23.02;49.48;99579.51;1791776;80;25870;-82
2022/04/17 10:57:00;;;;;;;17.23;10.78;;;;;;;23.03;49.53;99585.33;1791397;80;27424;-83
2022/04/17 10:59:33;;;;;;;14.63;9.45;;;;;;;23.05;49.53;99584.34;1791372;80;25664;-82
2022/04/17 11:02:19;;;;;;;16.85;10.50;;;;;;;23.04;49.66;99582.16;1791709;80;25487;-85
2022/04/17 11:04:54;;;;;;;16.48;9.60;;;;;;;23.04;49.76;99575.75;1791811;80;26318;-86
2022/04/17 11:07:28;;;;;;;14.20;10.38;;;;;;;23.06;49.89;99582.57;1791637;80;25423;-83
2022/04/17 11:10:25;;;;;;;12.98;9.63;;;;;;;23.05;49.95;99570.37;1791407;80;28383;-82
2022/04/17 11:12:57;;;;;;;14.98;9.93;;;;;;;23.07;49.97;99573.61;1776701;80;25732;-83
2022/04/17 11:15:29;;;;;;;14.47;9.45;;;;;;;23.05;50.11;99569.79;1791702;80;26341;-82
2022/04/17 11:17:58;;;;;;;18.65;9.38;;;;;;;23.06;50.21;99566.41;1791684;80;25857;-83
2022/04/17 11:20:25;;;;;;;12.82;9.33;;;;;;;23.06;50.27;99565.80;1791735;80;25752;-82
2022/04/17 11:22:52;;;;;;;12.35;8.88;;;;;;;23.06;50.32;99559.42;1791824;80;27355;-81
2022/04/17 11:25:18;;;;;;;12.15;8.98;;;;;;;23.03;50.37;99554.59;1791242;80;25709;-81
2022/04/17 11:27:51;;;;;;;11.83;9.05;;;;;;;23.03;50.41;99558.17;1791812;80;25459;-83
2022/04/17 11:30:23;;;;;;;13.70;8.95;;;;;;;23.04;50.53;99557.59;1791722;80;26543;-81
2022/04/17 11:32:55;;;;;;;11.30;8.65;;;;;;;23.04;50.48;99554.79;1791749;80;25657;-81
2022/04/17 11:35:26;;;;;;;11.60;8.98;;;;;;;23.04;50.53;99555.61;1791402;80;27452;-83
2022/04/17 11:38:05;;;;;;;12.80;8.80;;;;;;;23.04;50.58;99554.79;1791547;80;25868;-81
2022/04/17 11:40:37;;;;;;;11.05;8.65;;;;;;;23.04;50.57;99550.59;1791674;80;25577;-83
2022/04/17 11:43:11;;;;;;;12.63;8.90;;;;;;;23.04;50.54;99542.21;1791702;80;25677;-81
2022/04/17 11:45:38;;;;;;;10.93;8.50;;;;;;;23.03;50.57;99536.42;1791437;80;25776;-81
2022/04/17 11:48:08;;;;;;;10.80;8.43;;;;;;;23.01;50.53;99537.38;1791690;80;28134;-82
2022/04/17 11:50:35;;;;;;;;;;;;;;;23.00;50.51;99531.58;1794201;80;25656;-82